Time;durP1;ratioP1;P1;durP2;ratioP2;P2;SDS_P1;SDS_P2;PMS_P1;PMS_P2;Temp;Humidity;BMP_temperature;BMP_pressure;BME280_temperature;BME280_humidity;BME280_pressure;Samples;Min_cycle;Max_cycle;Signal;HPM_P1;HPM_P2
2022/12/16 00:01:24;;;;;;;4.73;2.97;;;;;;;;;;10326646;28;20219;-61
2022/12/16 00:06:26;;;;;;;5.53;3.27;;;;;;;;;;10325183;28;20221;-62
2022/12/16 00:11:26;;;;;;;9.23;4.00;;;;;;;;;;10326076;28;20241;-62
2022/12/16 00:16:27;;;;;;;7.00;3.87;;;;;;;;;;10325295;28;20281;-60
2022/12/16 00:21:28;;;;;;;5.57;3.03;;;;;;;;;;10325584;28;20277;-61
2022/12/16 00:26:30;;;;;;;7.63;3.77;;;;;;;;;;10325015;28;20319;-62
2022/12/16 00:31:30;;;;;;;5.77;3.00;;;;;;;;;;10324669;28;20239;-64
2022/12/16 00:36:31;;;;;;;7.20;3.50;;;;;;;;;;10324285;28;20196;-64
2022/12/16 00:41:31;;;;;;;5.33;3.17;;;;;;;;;;10324000;28;20366;-64
2022/12/16 00:46:31;;;;;;;5.37;2.80;;;;;;;;;;10327926;28;20478;-62
2022/12/16 00:51:32;;;;;;;5.73;2.93;;;;;;;;;;10332609;28;20204;-61
2022/12/16 00:56:32;;;;;;;7.50;3.10;;;;;;;;;;10331441;28;20679;-64
2022/12/16 01:01:32;;;;;;;4.57;2.43;;;;;;;;;;10332239;28;20274;-61
2022/12/16 01:06:32;;;;;;;5.07;2.93;;;;;;;;;;10331422;28;20484;-63
2022/12/16 01:11:32;;;;;;;4.10;2.77;;;;;;;;;;10331545;28;20526;-63
2022/12/16 01:16:33;;;;;;;6.90;2.87;;;;;;;;;;10331506;28;20199;-63
2022/12/16 01:21:34;;;;;;;6.07;3.03;;;;;;;;;;10330932;28;20223;-61
2022/12/16 01:26:34;;;;;;;6.00;3.03;;;;;;;;;;10330994;28;20219;-63
2022/12/16 01:31:34;;;;;;;6.55;3.70;;;;;;;;;;10331322;28;20272;-62
2022/12/16 01:36:34;;;;;;;8.00;3.90;;;;;;;;;;10329802;28;20203;-64
2022/12/16 01:41:35;;;;;;;7.40;3.90;;;;;;;;;;10329528;28;20225;-64
2022/12/16 01:46:37;;;;;;;6.70;4.23;;;;;;;;;;10330289;28;20241;-63
2022/12/16 01:51:44;;;;;;;11.57;6.03;;;;;;;;;;10330018;28;20212;-63
2022/12/16 01:56:47;;;;;;;18.77;9.77;;;;;;;;;;10330001;28;20196;-61
2022/12/16 02:01:47;;;;;;;16.13;8.17;;;;;;;;;;10328239;28;20279;-62
2022/12/16 02:06:47;;;;;;;23.90;11.47;;;;;;;;;;10329025;28;20221;-63
2022/12/16 02:11:57;;;;;;;30.30;12.80;;;;;;;;;;10329344;28;20287;-62
2022/12/16 02:16:59;;;;;;;25.67;11.70;;;;;;;;;;10329332;28;20194;-64
2022/12/16 02:22:12;;;;;;;20.13;9.47;;;;;;;;;;10328728;28;20217;-64
2022/12/16 02:27:18;;;;;;;21.77;9.03;;;;;;;;;;10328898;28;20275;-63
2022/12/16 02:32:47;;;;;;;16.33;8.50;;;;;;;;;;10328143;28;20311;-64
2022/12/16 02:37:53;;;;;;;20.70;9.67;;;;;;;;;;10258257;28;20336;-64
2022/12/16 02:42:56;;;;;;;23.90;12.57;;;;;;;;;;10328055;28;20324;-64
2022/12/16 02:47:57;;;;;;;22.70;10.87;;;;;;;;;;10329439;28;20233;-65
2022/12/16 02:52:57;;;;;;;22.60;11.40;;;;;;;;;;10327712;28;20217;-65
2022/12/16 02:58:07;;;;;;;32.83;13.93;;;;;;;;;;10326646;28;20220;-64
2022/12/16 03:03:19;;;;;;;32.07;15.27;;;;;;;;;;10326532;28;20321;-63
2022/12/16 03:08:22;;;;;;;34.13;15.77;;;;;;;;;;10325049;28;20217;-63
2022/12/16 03:13:22;;;;;;;39.30;18.43;;;;;;;;;;10326948;28;20284;-64
2022/12/16 03:18:23;;;;;;;33.70;16.73;;;;;;;;;;10325817;28;20201;-64
2022/12/16 03:23:26;;;;;;;44.17;19.17;;;;;;;;;;10326825;28;20263;-63
2022/12/16 03:28:34;;;;;;;48.47;19.57;;;;;;;;;;10326419;28;20224;-63
2022/12/16 03:33:38;;;;;;;49.90;22.23;;;;;;;;;;10325611;28;20233;-62
2022/12/16 03:38:39;;;;;;;48.77;21.40;;;;;;;;;;10325974;28;20225;-63
2022/12/16 03:43:39;;;;;;;45.23;21.57;;;;;;;;;;10325914;28;20221;-63
2022/12/16 03:48:47;;;;;;;51.47;22.65;;;;;;;;;;10325636;28;20206;-64
2022/12/16 03:53:47;;;;;;;51.93;23.00;;;;;;;;;;10325412;28;20244;-63
2022/12/16 03:58:48;;;;;;;51.45;23.13;;;;;;;;;;10325765;28;20261;-62
2022/12/16 04:03:48;;;;;;;58.17;25.10;;;;;;;;;;10337102;28;20283;-63
2022/12/16 04:08:48;;;;;;;51.30;23.67;;;;;;;;;;10359351;28;20224;-63
2022/12/16 04:24:30;;;;;;;48.87;21.37;;;;;;;;;;10358857;28;20717;-64
2022/12/16 04:29:31;;;;;;;47.37;21.80;;;;;;;;;;10358224;28;20224;-65
2022/12/16 04:34:31;;;;;;;46.70;21.07;;;;;;;;;;10357924;28;20600;-64
